Latest Weather Observations for Lake Grace

IDW60801

Issued at 10:04 am WST Saturday 21 January 2017 (issued every 30 minutes, with the page automatically refreshed every 10 minutes)

About weather observations | Map of weather stations | Latest weather observations for WA | Other Formats
Station Details ID: 010911 Name: LAKE GRACE Lat: -33.10 Lon: 118.46 Height: 286.0 m
Data from the previous 72 hours. | See also: Recent months at Lake Grace
Date/Time
WST
Temp
°C
App
Temp
°C
Dew
Point
°C
Rel
Hum
%
Delta-T
°C
Wind Press
QNH
hPa
Press
MSL
hPa
Rain since
9am
mm
Dir  Spd
km/h
Gust
km/h
Spd
kts
Gust
kts
21/10:00am 27.2 26.3 10.8 36 9.4 N 6 11 3 6 1010.1 1008.7 0.0
21/09:30am 26.0 24.2 11.0 39 8.6 NNW 11 19 6 10 1010.4 1009.0 0.0
21/09:00am 24.9 23.3 11.5 43 7.7 N 11 17 6 9 1010.5 1009.1 0.0
21/08:30am 23.6 21.8 12.0 48 6.7 N 13 19 7 10 1010.5 1009.1 0.0
21/08:00am 21.9 20.1 12.2 54 5.6 NNE 13 19 7 10 1010.5 1009.1 0.0
21/07:30am 20.3 19.0 12.5 61 4.4 NNE 11 19 6 10 1010.7 1009.3 0.0
21/07:00am 18.6 17.3 12.6 68 3.4 NE 11 17 6 9 1010.7 1009.3 0.0
21/06:30am 17.2 16.7 12.5 74 2.6 E 7 11 4 6 1010.7 1009.3 0.0
21/06:00am 15.9 16.5 11.9 77 2.2 CALM 0 6 0 3 1010.7 1009.3 0.0
21/05:30am 13.8 13.9 10.0 78 2.0 CALM 0 0 0 0 1010.4 1009.0 0.0
21/05:00am 13.9 14.0 10.1 78 2.0 CALM 0 0 0 0 1010.3 1008.9 0.0
21/04:30am 14.3 13.3 10.3 77 2.1 WSW 6 7 3 4 1010.2 1008.8 0.0
21/04:00am 14.9 14.0 10.7 76 2.3 WSW 6 7 3 4 1010.1 1008.7 0.0
21/03:30am 14.9 14.0 10.5 75 2.3 SSE 6 9 3 5 1009.8 1008.4 0.0
21/03:00am 15.0 13.5 10.6 75 2.4 ESE 9 17 5 9 1010.1 1008.7 0.0
21/02:30am 15.0 13.5 10.6 75 2.4 SE 9 15 5 8 1010.3 1008.9 0.0
21/02:00am 14.4 13.2 10.2 76 2.2 SSE 7 13 4 7 1010.6 1009.2 0.0
21/01:30am 14.6 13.6 10.2 75 2.3 SSE 6 9 3 5 1011.2 1009.8 0.0
21/01:00am 15.3 14.2 10.5 73 2.6 SSE 7 11 4 6 1011.5 1010.1 0.0
21/12:30am 15.5 14.0 10.7 73 2.6 SE 9 13 5 7 1011.7 1010.3 0.0
21/12:00am 15.8 14.0 11.0 73 2.6 ESE 11 19 6 10 1011.9 1010.6 0.0
 
Date/Time
WST
Temp
°C
App
Temp
°C
Dew
Point
°C
Rel
Hum
%
Delta-T
°C
Wind Press
QNH
hPa
Press
MSL
hPa
Rain since
9am
mm
Dir  Spd
km/h
Gust
km/h
Spd
kts
Gust
kts
20/11:30pm 16.2 13.7 11.2 72 2.7 SE 15 20 8 11 1012.1 1010.8 0.0
20/11:00pm 16.7 13.9 11.2 70 3.0 SE 17 26 9 14 1012.3 1011.0 0.0
20/10:30pm 17.3 14.5 11.3 68 3.3 SE 17 30 9 16 1012.1 1010.8 0.0
20/10:00pm 18.3 14.6 11.4 64 3.8 ESE 22 32 12 17 1011.8 1010.5 0.0
20/09:30pm 19.4 14.9 11.4 60 4.5 SE 26 35 14 19 1011.6 1010.2 0.0
20/09:00pm 21.1 16.6 11.4 54 5.5 ESE 26 37 14 20 1010.9 1009.5 0.0
20/08:30pm 22.7 18.9 11.1 48 6.5 ESE 22 39 12 21 1010.6 1009.2 0.0
20/08:00pm 24.2 20.3 10.8 43 7.6 ESE 22 37 12 20 1010.1 1008.7 0.0
20/07:30pm 26.2 22.3 9.5 35 9.3 ESE 20 30 11 16 1009.7 1008.3 0.0
20/07:00pm 28.5 24.5 2.7 19 13.0 SSE 13 19 7 10 1009.3 1008.0 0.0
20/06:30pm 29.3 25.2 2.5 18 13.5 SSE 13 19 7 10 1009.1 1007.8 0.0
20/06:00pm 29.8 25.3 2.1 17 13.9 SSE 15 22 8 12 1009.0 1007.7 0.0
20/05:30pm 29.4 25.7 2.6 18 13.5 SSE 11 20 6 11 1008.9 1007.6 0.0
20/05:00pm 29.4 25.5 3.4 19 13.3 SSE 13 19 7 10 1009.1 1007.8 0.0
20/04:30pm 29.7 25.7 2.9 18 13.6 S 13 20 7 11 1009.3 1008.0 0.0
20/04:00pm 29.3 25.1 1.7 17 13.7 SE 13 20 7 11 1009.7 1008.3 0.0
20/03:30pm 28.7 25.1 2.8 19 13.0 SSE 11 19 6 10 1010.0 1008.6 0.0
20/03:00pm 28.0 24.5 3.7 21 12.4 SSE 11 20 6 11 1010.4 1009.0 0.0
20/02:30pm 27.3 23.8 3.7 22 12.0 SSE 11 17 6 9 1010.8 1009.4 0.0
20/02:00pm 27.4 24.2 5.1 24 11.6 SSE 11 19 6 10 1011.0 1009.6 0.0
20/01:30pm 26.8 24.0 5.1 25 11.2 SSW 9 22 5 12 1011.3 1009.9 0.0
20/01:00pm 25.3 21.9 3.9 25 10.8 SSE 11 17 6 9 1011.8 1010.5 0.0
20/12:30pm 25.2 22.1 5.4 28 10.2 SSE 11 19 6 10 1012.2 1010.9 0.0
20/12:00pm 24.5 21.6 6.3 31 9.5 S 11 17 6 9 1012.4 1011.1 0.0
20/11:30am 23.6 21.1 6.4 33 8.9 SSW 9 19 5 10 1012.7 1011.4 0.0
20/11:00am 22.2 19.2 6.0 35 8.3 SE 11 17 6 9 1013.0 1011.7 0.0
20/10:30am 22.0 18.8 7.0 38 7.8 ENE 13 26 7 14 1013.2 1011.8 0.0
20/10:00am 20.7 18.2 8.0 44 6.7 ENE 11 20 6 11 1013.3 1011.9 0.0
20/09:30am 20.1 17.5 7.8 45 6.4 E 11 19 6 10 1013.5 1012.1 0.0
20/09:00am 19.2 16.6 7.9 48 5.9 E 11 17 6 9 1013.7 1012.3 0.0
20/08:30am 17.6 14.6 7.9 53 5.0 E 13 20 7 11 1014.0 1012.6 0.0
20/08:00am 17.0 14.2 8.4 57 4.5 ESE 13 22 7 12 1014.1 1012.7 0.0
20/07:30am 16.0 13.4 9.2 64 3.6 SE 13 20 7 11 1014.0 1012.6 0.0
20/07:00am 14.2 12.4 9.6 74 2.4 SE 9 13 5 7 1013.9 1012.5 0.0
20/06:30am 12.7 11.2 9.0 78 1.9 S 7 9 4 5 1013.7 1012.3 0.0
20/06:00am 11.6 10.1 8.6 82 1.5 SE 6 9 3 5 1013.6 1012.2 0.0
20/05:30am 10.1 9.2 7.7 85 1.2 SE 2 6 1 3 1013.6 1012.2 0.0
20/05:00am 9.9 8.1 7.3 84 1.3 SE 6 9 3 5 1013.5 1012.1 0.0
20/04:30am 10.5 8.6 7.7 83 1.4 SSE 7 9 4 5 1013.4 1012.0 0.0
20/04:00am 10.7 9.1 7.8 82 1.4 SE 6 7 3 4 1013.5 1012.1 0.0
20/03:30am 11.1 9.3 7.8 80 1.6 SE 7 9 4 5 1013.4 1012.0 0.0
20/03:00am 11.5 9.9 8.2 80 1.6 SSE 6 9 3 5 1013.8 1012.4 0.0
20/02:30am 11.7 10.5 8.2 79 1.7 SSE 4 7 2 4 1013.8 1012.4 0.0
20/02:00am 11.8 10.2 7.9 77 1.9 SE 6 7 3 4 1013.9 1012.5 0.0
20/01:30am 12.4 10.3 8.1 75 2.1 SSE 9 11 5 6 1013.8 1012.4 0.0
20/01:00am 12.7 10.6 8.2 74 2.3 SE 9 13 5 7 1013.8 1012.4 0.0
20/12:30am 13.1 10.6 8.2 72 2.5 SE 11 15 6 8 1014.0 1012.6 0.0
20/12:00am 13.5 10.7 8.4 71 2.6 SE 13 19 7 10 1014.0 1012.6 0.0
 
Date/Time
WST
Temp
°C
App
Temp
°C
Dew
Point
°C
Rel
Hum
%
Delta-T
°C
Wind Press
QNH
hPa
Press
MSL
hPa
Rain since
9am
mm
Dir  Spd
km/h
Gust
km/h
Spd
kts
Gust
kts
19/11:30pm 13.9 10.2 8.1 68 2.9 SE 17 26 9 14 1013.8 1012.4 0.0
19/11:00pm 14.3 10.6 7.8 65 3.3 SE 17 22 9 12 1013.9 1012.5 0.0
19/10:30pm 14.8 11.1 7.8 63 3.5 SE 17 24 9 13 1013.8 1012.4 0.0
19/10:00pm 15.5 11.3 8.3 62 3.7 SE 20 30 11 16 1013.7 1012.3 0.0
19/09:30pm 16.4 12.9 8.9 61 3.9 SE 17 28 9 15 1013.4 1012.0 0.0
19/09:00pm 17.3 13.5 9.2 59 4.3 SE 19 32 10 17 1012.8 1011.5 0.0
19/08:30pm 18.2 13.6 9.5 57 4.6 SE 24 35 13 19 1012.4 1011.1 0.0
19/08:00pm 19.2 14.9 9.4 53 5.3 SE 22 32 12 17 1011.8 1010.5 0.0
19/07:30pm 20.4 15.8 9.6 50 5.8 SE 24 35 13 19 1011.3 1009.9 0.0
19/07:00pm 22.2 18.1 8.7 42 7.3 SSE 20 33 11 18 1010.9 1009.5 0.0
19/06:30pm 24.2 20.1 6.0 31 9.4 S 17 32 9 17 1010.5 1009.1 0.0
19/06:00pm 24.8 20.3 6.1 30 9.8 S 19 32 10 17 1010.0 1008.6 0.0
19/05:30pm 25.2 20.6 6.4 30 9.9 S 20 35 11 19 1009.7 1008.3 0.0
19/05:00pm 25.9 21.5 6.5 29 10.3 S 19 30 10 16 1009.6 1008.2 0.0
19/04:30pm 26.3 22.0 6.9 29 10.3 S 19 33 10 18 1009.4 1008.1 0.0
19/04:00pm 26.4 21.9 6.9 29 10.4 SE 20 30 11 16 1009.4 1008.1 0.0
19/03:30pm 26.0 21.1 7.1 30 10.1 SSE 22 41 12 22 1009.3 1008.0 0.0
19/03:00pm 25.8 21.5 6.9 30 10.1 S 19 32 10 17 1009.3 1008.0 0.0
19/02:30pm 25.3 20.9 6.5 30 9.9 S 19 35 10 19 1009.3 1008.0 0.0
19/02:00pm 24.8 20.5 7.0 32 9.4 SSW 19 30 10 16 1009.8 1008.4 0.0
19/01:30pm 24.9 19.9 6.6 31 9.6 S 22 35 12 19 1009.8 1008.4 0.0
19/01:00pm 24.4 19.8 6.6 32 9.4 S 20 35 11 19 1009.8 1008.4 0.0
19/12:30pm 23.9 19.0 7.1 34 8.9 SSW 22 39 12 21 1010.3 1008.9 0.0
19/12:00pm 22.8 17.8 6.6 35 8.4 SSW 22 35 12 19 1010.6 1009.2 0.0
19/11:30am 22.3 17.1 7.3 38 7.9 SSW 24 43 13 23 1010.8 1009.4 0.0
19/11:00am 22.5 17.1 7.9 39 7.8 SSW 26 44 14 24 1010.8 1009.4 0.0
19/10:30am 22.2 17.5 7.6 39 7.7 SSW 22 43 12 23 1011.0 1009.6 0.0
19/10:00am 20.5 15.1 7.8 44 6.7 SSW 26 46 14 25 1010.8 1009.4 0.0
19/09:30am 20.2 14.8 7.9 45 6.4 SSW 26 41 14 22 1010.8 1009.4 0.0
19/09:00am 19.4 14.3 7.8 47 6.0 SSW 24 39 13 21 1010.7 1009.3 0.0
19/08:30am 19.1 14.1 8.1 49 5.7 SSW 24 39 13 21 1010.6 1009.2 0.0
19/08:00am 17.6 12.4 7.1 50 5.3 SW 24 41 13 22 1010.4 1009.0 0.0
19/07:30am 17.4 12.7 7.7 53 5.0 SW 22 41 12 22 1010.3 1008.9 0.0
19/07:00am 16.5 12.0 9.9 65 3.5 SW 24 39 13 21 1010.1 1008.7 0.0
19/06:30am 16.2 12.6 10.5 69 3.1 SW 20 39 11 21 1009.7 1008.3 0.0
19/06:00am 16.3 12.8 10.8 70 3.0 SW 20 30 11 16 1009.3 1008.0 0.0
19/05:30am 16.2 12.7 10.9 71 2.9 SSW 20 35 11 19 1008.7 1007.4 0.0
19/05:00am 16.6 12.3 10.7 68 3.2 SW 24 39 13 21 1008.2 1006.8 0.0
19/04:30am 17.2 12.9 10.6 65 3.6 SW 24 43 13 23 1007.8 1006.4 0.0
19/04:00am 17.6 14.2 11.2 66 3.5 SW 20 32 11 17 1007.4 1006.0 0.0
19/03:30am 18.1 14.6 11.0 63 3.9 SW 20 35 11 19 1007.3 1005.9 0.0
19/03:00am 18.7 14.5 11.0 61 4.3 SW 24 41 13 22 1006.8 1005.4 0.0
19/02:30am 19.7 15.1 10.9 57 4.9 WSW 26 41 14 22 1006.2 1004.8 0.0
19/02:00am 21.5 18.8 11.8 54 5.5 W 17 24 9 13 1005.5 1004.1 0.0
19/01:30am 22.2 19.1 12.2 53 5.7 WNW 20 30 11 16 1005.5 1004.1 0.0
19/01:00am 21.6 21.9 16.1 71 3.4 W 9 13 5 7 1005.7 1004.4 0.0
19/12:30am 21.6 21.0 15.7 69 3.6 NE 13 20 7 11 1005.5 1004.1 0.0
19/12:00am 21.9 21.9 16.2 70 3.5 NNE 11 17 6 9 1006.0 1004.6 0.0
 
Date/Time
WST
Temp
°C
App
Temp
°C
Dew
Point
°C
Rel
Hum
%
Delta-T
°C
Wind Press
QNH
hPa
Press
MSL
hPa
Rain since
9am
mm
Dir  Spd
km/h
Gust
km/h
Spd
kts
Gust
kts
18/11:30pm 23.4 21.3 12.4 50 6.4 NE 15 20 8 11 1006.7 1005.3 0.0
18/11:00pm 23.0 20.3 11.7 49 6.5 ENE 17 24 9 13 1007.0 1005.6 0.0
18/10:30pm 22.7 20.8 11.7 49 6.3 E 13 19 7 10 1006.6 1005.2 0.0
18/10:00pm 23.2 20.9 11.9 49 6.5 ESE 15 26 8 14 1007.1 1005.7 0.0
18/09:30pm 23.8 20.8 11.8 47 6.9 ESE 19 24 10 13 1007.2 1005.8 0.0
18/09:00pm 25.3 22.1 11.1 41 8.1 ESE 19 26 10 14 1007.3 1005.9 0.0
18/08:30pm 27.9 27.3 7.2 27 11.2 CALM 0 0 0 0 1007.2 1005.8 0.0
18/08:00pm 28.4 27.7 7.1 26 11.6 CALM 0 0 0 0 1007.3 1005.9 0.0
18/07:30pm 28.8 27.3 6.8 25 11.9 N 4 7 2 4 1007.2 1005.8 0.0
18/07:00pm 29.4 27.5 6.7 24 12.3 WNW 6 7 3 4 1007.3 1005.9 0.0
18/06:30pm 29.6 27.0 6.3 23 12.5 NNW 9 11 5 6 1007.0 1005.6 0.0
18/06:00pm 29.5 27.6 6.8 24 12.3 NE 6 11 3 6 1007.2 1005.8 0.0
18/05:30pm 29.8 27.9 6.5 23 12.6 NW 6 9 3 5 1007.5 1006.1 0.0
18/05:00pm 29.8 27.7 6.5 23 12.6 NNW 7 13 4 7 1007.5 1006.1 0.0
18/04:30pm 30.0 27.5 6.6 23 12.7 ENE 9 17 5 9 1007.7 1006.3 0.0
18/04:00pm 30.0 27.0 6.0 22 12.9 NW 11 15 6 8 1008.1 1006.7 0.0
18/03:30pm 29.4 27.3 6.7 24 12.3 W 7 13 4 7 1008.7 1007.4 0.0
18/03:00pm 29.5 26.3 6.8 24 12.3 N 13 24 7 13 1009.1 1007.8 0.0
18/02:30pm 28.3 25.4 6.4 25 11.7 NNE 11 19 6 10 1009.8 1008.4 0.0
18/02:00pm 28.3 26.1 6.4 25 11.7 NW 7 17 4 9 1010.1 1008.7 0.0
18/01:30pm 27.5 24.7 5.1 24 11.7 NW 9 19 5 10 1010.6 1009.2 0.0
18/01:00pm 27.5 25.2 5.7 25 11.5 NE 7 15 4 8 1011.0 1009.6 0.0
18/12:30pm 25.7 22.7 5.8 28 10.4 N 11 17 6 9 1011.6 1010.2 0.0
18/12:00pm 25.2 21.7 5.4 28 10.2 NNE 13 20 7 11 1012.2 1010.9 0.0
18/11:30am 24.1 21.4 7.3 34 8.9 NE 11 26 6 14 1012.9 1011.6 0.0
18/11:00am 23.2 19.8 7.7 37 8.2 NE 15 20 8 11 1013.5 1012.1 0.0
18/10:30am 22.8 20.0 8.5 40 7.7 ENE 13 20 7 11 1014.0 1012.6 0.0

Other Formats:

Comma delimited format used in spreadsheet applications
http://www.bom.gov.au/fwo/IDW60801/IDW60801.95637.axf

JavaScript Object Notation format (JSON) in row-major order
http://www.bom.gov.au/fwo/IDW60801/IDW60801.95637.json